Time;durP1;ratioP1;P1;durP2;ratioP2;P2;SDS_P1;SDS_P2;PMS_P1;PMS_P2;Temp;Humidity;BMP_temperature;BMP_pressure;BME280_temperature;BME280_humidity;BME280_pressure;Samples;Min_cycle;Max_cycle;Signal;HPM_P1;HPM_P2
2021/10/22 00:01:22;;;;;;;12.95;10.68;;;13.40;77.90;;;;;;5012697;28;20081;-75
2021/10/22 00:03:47;;;;;;;14.63;10.65;;;13.40;77.90;;;;;;5013068;28;20429;-75
2021/10/22 00:06:13;;;;;;;15.13;10.48;;;13.30;77.80;;;;;;5015872;28;20026;-76
2021/10/22 00:08:39;;;;;;;13.63;10.32;;;13.30;77.80;;;;;;5031348;28;20029;-77
2021/10/22 00:11:05;;;;;;;14.82;10.43;;;13.30;77.90;;;;;;5029784;28;20438;-75
2021/10/22 00:13:31;;;;;;;14.63;10.77;;;13.30;77.90;;;;;;5012692;28;20096;-75
2021/10/22 00:15:57;;;;;;;14.95;10.60;;;13.30;78.10;;;;;;5013051;28;20479;-77
2021/10/22 00:18:23;;;;;;;11.00;8.48;;;13.30;78.00;;;;;;5012760;28;20054;-77
2021/10/22 00:20:49;;;;;;;16.05;11.63;;;13.30;77.80;;;;;;5045129;28;20113;-77
2021/10/22 00:23:15;;;;;;;19.20;10.73;;;13.30;77.70;;;;;;5014316;28;20054;-75
2021/10/22 00:25:41;;;;;;;15.27;10.60;;;13.30;77.90;;;;;;5016975;28;20022;-76
2021/10/22 00:28:07;;;;;;;14.30;11.18;;;13.30;78.20;;;;;;5016500;28;20069;-75
2021/10/22 00:30:33;;;;;;;14.25;10.10;;;13.30;78.10;;;;;;5016160;28;20475;-75
2021/10/22 00:32:58;;;;;;;12.68;10.85;;;13.30;78.10;;;;;;5016039;28;20022;-77
2021/10/22 00:35:24;;;;;;;23.30;12.38;;;13.20;78.10;;;;;;5016033;28;20076;-75
2021/10/22 00:37:50;;;;;;;16.83;11.60;;;13.20;78.30;;;;;;5014989;28;20037;-75
2021/10/22 00:40:19;;;;;;;12.55;9.85;;;13.20;78.30;;;;;;5016358;28;20524;-75
2021/10/22 00:42:45;;;;;;;14.02;9.52;;;13.20;78.30;;;;;;5015820;28;20026;-75
2021/10/22 00:45:11;;;;;;;14.77;11.48;;;13.20;78.40;;;;;;5015986;28;20119;-75
2021/10/22 00:47:37;;;;;;;15.15;10.43;;;13.20;78.50;;;;;;5016030;28;20113;-75
2021/10/22 00:50:03;;;;;;;14.95;10.63;;;13.20;78.50;;;;;;5015711;28;20022;-76
2021/10/22 00:52:30;;;;;;;16.25;9.73;;;13.20;78.40;;;;;;5015838;28;20434;-74
2021/10/22 00:54:57;;;;;;;15.90;10.55;;;13.20;78.50;;;;;;5015698;28;20124;-76
2021/10/22 00:57:24;;;;;;;13.82;10.32;;;13.20;78.50;;;;;;5015777;28;20037;-75
2021/10/22 00:59:50;;;;;;;12.63;10.30;;;13.20;78.50;;;;;;5015233;28;20052;-75
2021/10/22 01:02:15;;;;;;;13.50;9.60;;;13.20;78.50;;;;;;5015123;28;20030;-76
2021/10/22 01:04:42;;;;;;;24.60;11.35;;;13.20;78.60;;;;;;5015495;28;20086;-75
2021/10/22 01:07:09;;;;;;;13.30;10.30;;;13.10;78.70;;;;;;5026593;28;20030;-77
2021/10/22 01:09:35;;;;;;;13.73;10.23;;;13.10;78.70;;;;;;5034215;28;20109;-75
2021/10/22 01:12:03;;;;;;;13.85;11.25;;;13.10;78.60;;;;;;5015645;28;20025;-76
2021/10/22 01:14:28;;;;;;;12.80;10.38;;;13.10;78.80;;;;;;5014896;28;20030;-76
2021/10/22 01:16:54;;;;;;;13.35;11.18;;;13.10;78.70;;;;;;5015539;28;20052;-77
2021/10/22 01:19:20;;;;;;;17.95;11.07;;;13.10;78.70;;;;;;5015415;28;20022;-75
2021/10/22 01:21:49;;;;;;;17.90;12.30;;;13.10;78.60;;;;;;5015292;28;20479;-76
2021/10/22 01:24:17;;;;;;;12.63;9.05;;;13.10;78.80;;;;;;5015075;28;20072;-77
2021/10/22 01:26:44;;;;;;;20.40;11.52;;;13.10;78.80;;;;;;5015298;28;20034;-75
2021/10/22 01:29:10;;;;;;;19.20;11.07;;;13.10;78.80;;;;;;5013866;28;20022;-79
2021/10/22 01:31:37;;;;;;;15.52;11.10;;;13.10;78.90;;;;;;5014965;28;20102;-76
2021/10/22 01:34:03;;;;;;;14.95;10.85;;;13.10;78.90;;;;;;5015106;28;20037;-78
2021/10/22 01:36:29;;;;;;;14.55;10.90;;;13.10;78.90;;;;;;5013834;28;20038;-76
2021/10/22 01:38:56;;;;;;;15.32;10.82;;;13.10;78.80;;;;;;5014989;28;20026;-75
2021/10/22 01:41:22;;;;;;;18.42;11.02;;;13.10;79.00;;;;;;5015841;28;20022;-74
2021/10/22 01:43:53;;;;;;;13.52;10.25;;;13.10;78.80;;;;;;5015664;28;20029;-75
2021/10/22 01:46:19;;;;;;;13.60;11.35;;;13.10;78.90;;;;;;5015046;28;20081;-76
2021/10/22 01:48:46;;;;;;;16.80;10.57;;;13.10;79.10;;;;;;5014736;28;20499;-75
2021/10/22 01:51:13;;;;;;;13.15;10.80;;;13.00;79.20;;;;;;5014965;28;20025;-73
2021/10/22 01:53:39;;;;;;;16.52;11.30;;;13.00;79.20;;;;;;5013520;28;20128;-75
2021/10/22 01:56:05;;;;;;;15.90;10.95;;;13.10;79.30;;;;;;5014917;28;20105;-75
2021/10/22 01:58:30;;;;;;;15.13;11.07;;;13.10;79.20;;;;;;5015483;28;20056;-76
2021/10/22 02:00:57;;;;;;;18.67;11.23;;;13.10;79.20;;;;;;5015297;28;20076;-76
2021/10/22 02:03:23;;;;;;;14.18;11.73;;;13.00;79.20;;;;;;5014997;28;20030;-77
2021/10/22 02:05:49;;;;;;;13.82;10.93;;;13.00;79.40;;;;;;5015155;28;20386;-75
2021/10/22 02:08:14;;;;;;;17.58;11.43;;;13.00;79.50;;;;;;5035479;28;20494;-77
2021/10/22 02:10:41;;;;;;;14.20;11.45;;;13.00;79.50;;;;;;5013674;28;20022;-76
2021/10/22 02:13:07;;;;;;;12.30;11.00;;;13.00;80.10;;;;;;5014557;28;20025;-76
2021/10/22 02:15:33;;;;;;;18.45;10.10;;;12.90;79.60;;;;;;5014457;28;20041;-78
2021/10/22 02:17:58;;;;;;;16.67;11.10;;;13.00;79.60;;;;;;5014367;28;20033;-75
2021/10/22 02:20:24;;;;;;;14.88;10.57;;;13.00;79.70;;;;;;5014084;28;20125;-75
2021/10/22 02:22:50;;;;;;;15.98;12.05;;;13.00;79.70;;;;;;5014327;28;20022;-75
2021/10/22 02:25:16;;;;;;;15.98;11.52;;;13.00;79.80;;;;;;5012870;28;20030;-76
2021/10/22 02:27:42;;;;;;;18.65;10.15;;;13.00;79.90;;;;;;5014256;28;20038;-75
2021/10/22 02:30:08;;;;;;;16.13;11.15;;;13.00;79.90;;;;;;5014077;28;20034;-76
2021/10/22 02:32:34;;;;;;;14.00;11.02;;;13.00;80.00;;;;;;5016431;28;20033;-75
2021/10/22 02:35:00;;;;;;;14.60;10.38;;;13.00;80.00;;;;;;5023357;28;20034;-75
2021/10/22 02:37:26;;;;;;;15.90;11.80;;;13.00;80.00;;;;;;5022069;28;20089;-75
2021/10/22 02:39:52;;;;;;;15.60;11.50;;;13.00;80.10;;;;;;5020549;28;20061;-76
2021/10/22 02:42:17;;;;;;;14.15;12.27;;;12.90;80.00;;;;;;5021252;28;20030;-75
2021/10/22 02:44:43;;;;;;;19.33;11.35;;;13.00;80.20;;;;;;5020682;28;20046;-75
2021/10/22 02:47:09;;;;;;;13.18;11.07;;;13.00;80.20;;;;;;5018060;28;20038;-75
2021/10/22 02:49:36;;;;;;;16.45;11.68;;;13.00;80.10;;;;;;5013671;28;20018;-74
2021/10/22 02:52:02;;;;;;;12.68;11.05;;;13.00;80.20;;;;;;5013667;28;20030;-75
2021/10/22 02:54:28;;;;;;;21.98;12.60;;;13.00;80.20;;;;;;5013591;28;20018;-75
2021/10/22 02:56:53;;;;;;;15.80;11.18;;;13.00;80.20;;;;;;5012091;28;20033;-75
2021/10/22 02:59:19;;;;;;;17.33;11.63;;;13.00;80.20;;;;;;5013760;28;20152;-75
2021/10/22 03:01:45;;;;;;;15.07;11.98;;;13.00;80.30;;;;;;5013572;28;20089;-76
2021/10/22 03:04:11;;;;;;;18.08;10.80;;;13.00;80.40;;;;;;5012738;28;20029;-75
2021/10/22 03:06:37;;;;;;;15.48;11.20;;;13.00;80.20;;;;;;5020233;28;20044;-75
2021/10/22 03:09:03;;;;;;;18.70;12.45;;;13.00;80.40;;;;;;5014020;28;20033;-76
2021/10/22 03:11:29;;;;;;;15.27;10.52;;;13.00;80.40;;;;;;5013300;28;20030;-74
2021/10/22 03:13:55;;;;;;;17.58;13.27;;;12.90;80.40;;;;;;5013186;28;20034;-75
2021/10/22 03:16:21;;;;;;;15.48;11.75;;;12.90;80.60;;;;;;5013066;28;20471;-74
2021/10/22 03:18:48;;;;;;;20.98;12.30;;;12.90;80.60;;;;;;5013117;28;20048;-76
2021/10/22 03:21:15;;;;;;;18.73;12.38;;;12.90;80.50;;;;;;5013095;28;20028;-76
2021/10/22 03:23:41;;;;;;;15.32;11.13;;;12.90;80.50;;;;;;5013080;28;20397;-75
2021/10/22 03:26:07;;;;;;;18.20;11.55;;;12.90;80.50;;;;;;5013635;28;20057;-77
2021/10/22 03:28:32;;;;;;;14.23;11.07;;;12.90;80.50;;;;;;5012928;28;20026;-75
2021/10/22 03:31:01;;;;;;;14.15;11.02;;;12.90;80.60;;;;;;5013110;28;20509;-76
2021/10/22 03:33:27;;;;;;;14.50;11.15;;;12.90;80.60;;;;;;5013020;28;20029;-75
2021/10/22 03:35:53;;;;;;;16.80;11.05;;;12.80;80.70;;;;;;5012969;28;20491;-76
2021/10/22 03:38:18;;;;;;;14.88;12.10;;;12.80;80.90;;;;;;5013034;28;20042;-76
2021/10/22 03:40:44;;;;;;;17.80;11.68;;;12.80;81.10;;;;;;5012971;28;20104;-76
2021/10/22 03:43:10;;;;;;;18.27;12.10;;;12.80;81.10;;;;;;5013123;28;20040;-76
2021/10/22 03:45:36;;;;;;;15.32;11.45;;;12.80;81.00;;;;;;5013008;28;20054;-74
2021/10/22 03:48:02;;;;;;;18.63;12.27;;;12.80;81.20;;;;;;5013238;28;20038;-76
2021/10/22 03:50:28;;;;;;;12.88;11.30;;;12.80;81.10;;;;;;5013299;28;20045;-76
2021/10/22 03:52:54;;;;;;;20.17;11.95;;;12.80;81.20;;;;;;5012794;28;20479;-76
2021/10/22 03:55:19;;;;;;;17.67;11.65;;;12.80;81.30;;;;;;5014102;28;20110;-75
2021/10/22 03:57:45;;;;;;;14.55;12.30;;;12.80;81.30;;;;;;5013297;28;20033;-74
2021/10/22 04:00:12;;;;;;;14.40;11.30;;;12.80;81.30;;;;;;5016890;28;20487;-76
2021/10/22 04:02:38;;;;;;;17.80;12.27;;;12.80;81.40;;;;;;5016978;28;20108;-76
2021/10/22 04:05:07;;;;;;;15.60;11.30;;;12.70;81.40;;;;;;5015327;28;20025;-75
2021/10/22 04:07:33;;;;;;;14.80;12.05;;;12.70;81.50;;;;;;5030901;28;20061;-75
2021/10/22 04:09:59;;;;;;;18.23;11.73;;;12.70;81.40;;;;;;5036264;28;20025;-75
2021/10/22 04:12:24;;;;;;;17.13;11.55;;;12.70;81.50;;;;;;5036269;28;20036;-73
2021/10/22 04:14:50;;;;;;;17.60;12.73;;;12.70;81.80;;;;;;5036741;28;20106;-76
2021/10/22 04:17:16;;;;;;;17.60;13.10;;;12.60;82.00;;;;;;5036472;28;20117;-75
2021/10/22 04:19:44;;;;;;;15.82;12.57;;;12.50;82.20;;;;;;5036333;28;20441;-75
2021/10/22 04:22:10;;;;;;;;;;;12.50;82.30;;;;;;5036663;28;20029;-77
2021/10/22 04:24:36;;;;;;;17.70;12.15;;;12.50;82.20;;;;;;5036102;28;19997;-76
2021/10/22 04:27:02;;;;;;;16.55;11.90;;;12.40;82.60;;;;;;5036368;28;20061;-76
2021/10/22 04:29:28;;;;;;;18.40;12.45;;;12.50;82.90;;;;;;5036060;28;20101;-77
2021/10/22 04:31:54;;;;;;;17.40;11.85;;;12.50;82.90;;;;;;5036026;28;20038;-76
2021/10/22 04:34:20;;;;;;;15.48;12.20;;;12.50;82.90;;;;;;5036107;28;20030;-75
2021/10/22 04:36:47;;;;;;;17.70;11.68;;;12.50;82.90;;;;;;5036341;28;20025;-76
2021/10/22 04:41:58;;;;;;;15.07;11.05;;;12.60;82.80;;;;;;5036076;28;20040;-77
2021/10/22 04:44:30;;;;;;;15.25;11.88;;;12.50;82.70;;;;;;5035669;28;20022;-75
2021/10/22 04:46:55;;;;;;;21.55;12.55;;;12.60;82.80;;;;;;5034646;28;20482;-76
2021/10/22 04:49:21;;;;;;;16.60;12.10;;;12.50;82.80;;;;;;5035743;28;20047;-76
2021/10/22 04:51:47;;;;;;;19.13;13.23;;;12.50;82.90;;;;;;5035800;28;20032;-78
2021/10/22 04:54:13;;;;;;;16.77;12.73;;;12.50;83.10;;;;;;5034330;28;20501;-77
2021/10/22 04:56:39;;;;;;;17.75;12.05;;;12.50;83.20;;;;;;5035320;28;20104;-76
2021/10/22 04:59:05;;;;;;;15.00;10.27;;;12.60;83.20;;;;;;5035043;28;20030;-78
2021/10/22 05:01:31;;;;;;;17.90;13.23;;;12.70;83.00;;;;;;5035149;28;20021;-78
2021/10/22 05:04:00;;;;;;;19.63;12.38;;;12.70;82.70;;;;;;5019985;28;20574;-77
2021/10/22 05:06:25;;;;;;;16.05;11.68;;;12.80;82.40;;;;;;5020669;28;20085;-77
2021/10/22 05:08:51;;;;;;;17.27;12.43;;;12.90;82.10;;;;;;5035406;28;20029;-77
2021/10/22 05:11:17;;;;;;;13.75;11.73;;;13.00;81.90;;;;;;5034060;28;20068;-76
2021/10/22 05:13:43;;;;;;;15.52;11.75;;;13.00;81.70;;;;;;5035437;28;20037;-77
2021/10/22 05:16:09;;;;;;;15.30;11.98;;;13.10;81.50;;;;;;5035242;28;20467;-79
2021/10/22 05:18:34;;;;;;;16.17;12.20;;;13.10;81.50;;;;;;5035400;28;20033;-77
2021/10/22 05:21:00;;;;;;;18.98;11.10;;;13.20;81.30;;;;;;5035487;28;20026;-76
2021/10/22 05:23:26;;;;;;;13.82;11.95;;;13.20;81.10;;;;;;5035053;28;20051;-74
2021/10/22 05:25:52;;;;;;;15.35;12.05;;;13.30;81.00;;;;;;5034907;28;20077;-77
2021/10/22 05:28:18;;;;;;;17.15;10.98;;;13.30;80.90;;;;;;5035158;28;20040;-79
2021/10/22 05:30:43;;;;;;;16.15;9.98;;;13.40;80.80;;;;;;5034804;28;20033;-77
2021/10/22 05:33:12;;;;;;;14.90;10.95;;;13.40;80.70;;;;;;5034886;28;20056;-77
2021/10/22 05:35:40;;;;;;;15.77;11.05;;;13.40;80.80;;;;;;5034295;28;20335;-78
2021/10/22 05:38:06;;;;;;;19.80;10.93;;;13.40;81.00;;;;;;5034582;28;20067;-77
2021/10/22 05:40:32;;;;;;;12.48;9.35;;;13.40;80.90;;;;;;5034411;28;20371;-78
2021/10/22 05:42:58;;;;;;;18.05;10.57;;;13.50;80.80;;;;;;5033243;28;20021;-78
2021/10/22 05:45:24;;;;;;;13.45;10.73;;;13.50;80.80;;;;;;5034210;28;20041;-78
2021/10/22 05:47:50;;;;;;;19.73;11.52;;;13.60;80.60;;;;;;5034379;28;20094;-79
2021/10/22 05:50:16;;;;;;;12.48;10.93;;;13.70;80.30;;;;;;5035060;28;20025;-78
2021/10/22 05:52:42;;;;;;;14.23;10.60;;;13.70;79.90;;;;;;5035280;28;20372;-77
2021/10/22 05:55:08;;;;;;;13.20;9.68;;;13.70;79.70;;;;;;5035435;28;20025;-77
2021/10/22 05:57:34;;;;;;;17.17;10.20;;;13.70;79.60;;;;;;5034813;28;20426;-81
2021/10/22 06:00:00;;;;;;;14.98;9.57;;;13.70;79.60;;;;;;5031184;28;20033;-77
2021/10/22 06:02:28;;;;;;;12.60;9.95;;;13.70;79.70;;;;;;5032821;28;20025;-75
2021/10/22 06:04:54;;;;;;;12.80;10.10;;;13.70;79.60;;;;;;5015021;28;20161;-76
2021/10/22 06:07:20;;;;;;;15.40;10.65;;;13.70;79.50;;;;;;5026328;28;20112;-76
2021/10/22 06:09:46;;;;;;;13.48;9.45;;;13.70;79.40;;;;;;5033779;28;20026;-77
2021/10/22 06:12:13;;;;;;;13.80;11.10;;;13.60;79.50;;;;;;5033613;28;20033;-74
2021/10/22 06:14:42;;;;;;;19.33;10.07;;;13.50;79.60;;;;;;5034155;28;20013;-75
2021/10/22 06:17:08;;;;;;;15.63;9.65;;;13.50;79.90;;;;;;5034014;28;20095;-73
2021/10/22 06:19:38;;;;;;;13.23;9.88;;;13.40;79.90;;;;;;5033640;28;20022;-73
2021/10/22 06:24:49;;;;;;;14.13;9.52;;;13.40;79.90;;;;;;5033641;28;20029;-74
2021/10/22 06:27:14;;;;;;;14.50;9.50;;;13.30;79.90;;;;;;5033323;28;20406;-75
2021/10/22 06:29:40;;;;;;;11.60;9.25;;;13.30;79.90;;;;;;5033605;28;20032;-74
2021/10/22 06:32:06;;;;;;;13.02;8.55;;;13.30;80.00;;;;;;5034257;28;20121;-74
2021/10/22 06:34:32;;;;;;;14.27;8.95;;;13.30;79.90;;;;;;5034131;28;20040;-73
2021/10/22 06:36:58;;;;;;;11.52;7.97;;;13.30;79.80;;;;;;5033734;28;20029;-73
2021/10/22 06:39:24;;;;;;;12.93;8.30;;;13.30;79.50;;;;;;5033571;28;20017;-73
2021/10/22 06:41:51;;;;;;;12.95;9.02;;;13.30;79.50;;;;;;5033384;28;20022;-73
2021/10/22 06:44:23;;;;;;;13.15;8.52;;;13.40;79.50;;;;;;5033204;28;20029;-75
2021/10/22 06:46:49;;;;;;;12.13;7.70;;;13.50;79.00;;;;;;5032980;28;20061;-75
2021/10/22 06:49:15;;;;;;;10.45;7.57;;;13.50;78.70;;;;;;5033064;28;20439;-75
2021/10/22 06:51:41;;;;;;;10.43;7.28;;;13.50;78.40;;;;;;5031566;28;20117;-74
2021/10/22 06:54:08;;;;;;;14.52;7.30;;;13.60;78.20;;;;;;5033373;28;20109;-74
2021/10/22 06:56:34;;;;;;;10.90;7.05;;;13.70;77.60;;;;;;5032920;28;20060;-74
2021/10/22 06:59:00;;;;;;;10.55;7.18;;;13.90;76.60;;;;;;5032749;28;20448;-72
2021/10/22 07:01:26;;;;;;;10.70;5.47;;;14.00;76.40;;;;;;5032869;28;20108;-74
2021/10/22 07:03:52;;;;;;;7.63;5.97;;;13.90;75.50;;;;;;5015233;28;20387;-74
2021/10/22 07:09:02;;;;;;;10.35;5.70;;;13.80;75.20;;;;;;5033041;28;20458;-75
2021/10/22 07:11:28;;;;;;;10.32;6.00;;;13.80;75.30;;;;;;5032883;28;20021;-74
2021/10/22 07:13:56;;;;;;;13.35;5.28;;;13.90;75.80;;;;;;5031511;28;20021;-74
2021/10/22 07:16:24;;;;;;;11.30;5.55;;;14.10;74.90;;;;;;5031146;28;20055;-75
2021/10/22 07:18:50;;;;;;;8.98;5.38;;;14.20;74.30;;;;;;5032633;28;20018;-75
2021/10/22 07:21:17;;;;;;;7.15;5.13;;;14.40;73.70;;;;;;5032810;28;20431;-75
2021/10/22 07:23:46;;;;;;;8.23;5.75;;;14.50;73.10;;;;;;5032652;28;20030;-75
2021/10/22 07:26:19;;;;;;;8.02;4.32;;;14.50;72.20;;;;;;5032546;28;20105;-73
2021/10/22 07:28:45;;;;;;;9.30;4.82;;;14.50;71.90;;;;;;5031448;28;20025;-73
2021/10/22 07:31:12;;;;;;;8.65;5.30;;;14.60;71.60;;;;;;5031396;28;20071;-74
2021/10/22 07:33:42;;;;;;;16.23;6.20;;;14.70;70.90;;;;;;5032822;28;20045;-73
2021/10/22 07:36:13;;;;;;;8.88;3.25;;;14.70;70.30;;;;;;5032527;28;20363;-76
2021/10/22 07:38:41;;;;;;;4.78;2.65;;;14.50;68.40;;;;;;5031231;28;20024;-74
2021/10/22 07:41:07;;;;;;;10.40;3.35;;;14.40;67.00;;;;;;5032369;28;20018;-74
2021/10/22 07:43:34;;;;;;;7.32;2.92;;;14.20;66.80;;;;;;5032307;28;20390;-73
2021/10/22 07:46:00;;;;;;;15.77;4.03;;;14.00;67.20;;;;;;5033383;28;20050;-75
2021/10/22 07:48:26;;;;;;;4.53;2.17;;;13.90;67.70;;;;;;5032288;28;20351;-76
2021/10/22 07:50:52;;;;;;;5.47;2.03;;;13.90;67.00;;;;;;5032573;28;20021;-74
2021/10/22 07:53:18;;;;;;;2.53;1.13;;;13.90;67.10;;;;;;5031214;28;20029;-75
2021/10/22 07:55:44;;;;;;;4.65;1.27;;;13.90;65.50;;;;;;5032316;28;20036;-74
2021/10/22 07:58:10;;;;;;;2.35;1.05;;;14.20;64.10;;;;;;5032503;28;20057;-73
2021/10/22 08:00:36;;;;;;;3.80;1.60;;;15.30;60.90;;;;;;5029835;28;20028;-75
2021/10/22 08:03:02;;;;;;;4.18;1.35;;;16.50;57.80;;;;;;5012445;28;20030;-76
2021/10/22 08:05:28;;;;;;;3.33;1.08;;;17.10;55.30;;;;;;5027974;28;20109;-74
2021/10/22 08:07:54;;;;;;;5.85;2.03;;;17.60;54.10;;;;;;5029825;28;20030;-73
2021/10/22 08:10:22;;;;;;;3.60;1.38;;;17.60;52.70;;;;;;5032024;28;20109;-74
2021/10/22 08:12:49;;;;;;;3.97;1.88;;;17.60;52.70;;;;;;5032134;28;20025;-76
2021/10/22 08:15:15;;;;;;;2.83;1.10;;;17.50;53.00;;;;;;5032093;28;20020;-74
2021/10/22 08:17:40;;;;;;;5.38;2.20;;;17.40;52.40;;;;;;5030365;28;20029;-75
2021/10/22 08:20:15;;;;;;;3.35;1.25;;;17.00;53.30;;;;;;5031699;28;20029;-75
2021/10/22 08:22:41;;;;;;;2.47;1.00;;;16.50;53.90;;;;;;5031581;28;20029;-74
2021/10/22 08:25:09;;;;;;;5.80;2.72;;;16.00;54.70;;;;;;5031573;28;20109;-74
2021/10/22 08:27:41;;;;;;;3.10;1.17;;;15.70;55.80;;;;;;5031420;28;20474;-74
2021/10/22 08:30:10;;;;;;;0.95;0.80;;;15.60;55.80;;;;;;5031995;28;20029;-74
2021/10/22 08:32:37;;;;;;;4.18;1.05;;;15.50;55.90;;;;;;5031945;28;20021;-75
2021/10/22 08:35:05;;;;;;;4.10;1.47;;;15.30;56.80;;;;;;5030522;28;20037;-75
2021/10/22 08:37:31;;;;;;;6.07;1.58;;;15.10;57.00;;;;;;5031961;28;20383;-75
2021/10/22 08:39:57;;;;;;;4.38;1.67;;;15.10;57.30;;;;;;5032085;28;20017;-74
2021/10/22 08:42:25;;;;;;;1.30;1.10;;;15.10;56.90;;;;;;5031895;28;20035;-74
2021/10/22 08:44:52;;;;;;;3.03;1.45;;;15.00;56.20;;;;;;5033050;28;20046;-75
2021/10/22 08:47:25;;;;;;;5.85;1.42;;;14.80;56.70;;;;;;5035638;28;20033;-75
2021/10/22 08:50:04;;;;;;;4.50;0.90;;;14.80;57.20;;;;;;5035714;28;20030;-74
2021/10/22 08:52:30;;;;;;;3.53;1.70;;;15.00;57.30;;;;;;5034115;28;20025;-73
2021/10/22 08:54:57;;;;;;;6.20;2.05;;;15.20;57.00;;;;;;5035332;28;20447;-75
2021/10/22 08:57:23;;;;;;;2.92;1.60;;;15.60;57.10;;;;;;5034398;28;20036;-73
2021/10/22 08:59:52;;;;;;;4.13;1.45;;;17.10;56.10;;;;;;5027836;28;20018;-73
2021/10/22 09:02:26;;;;;;;3.78;1.33;;;18.10;52.00;;;;;;5015563;28;20074;-74
2021/10/22 09:04:56;;;;;;;3.78;1.77;;;18.00;51.40;;;;;;5015858;28;20025;-74
2021/10/22 09:07:37;;;;;;;5.30;2.42;;;17.20;51.90;;;;;;5028145;28;20052;-74
2021/10/22 09:10:07;;;;;;;3.13;1.60;;;16.70;53.10;;;;;;5035163;28;20021;-73
2021/10/22 09:12:48;;;;;;;3.28;1.25;;;16.20;54.20;;;;;;5035004;28;20052;-74
2021/10/22 09:15:24;;;;;;;3.22;1.52;;;16.20;55.20;;;;;;5034790;28;20021;-75
2021/10/22 09:17:50;;;;;;;7.33;1.93;;;16.40;55.00;;;;;;5035322;28;20083;-74
2021/10/22 09:20:17;;;;;;;4.43;1.48;;;16.60;54.40;;;;;;5035006;28;20498;-73
2021/10/22 09:22:58;;;;;;;3.17;1.17;;;16.70;54.80;;;;;;5034819;28;20502;-75
2021/10/22 09:25:29;;;;;;;3.42;1.92;;;17.10;53.10;;;;;;5034967;28;20495;-73
2021/10/22 09:28:03;;;;;;;2.97;1.35;;;16.70;52.80;;;;;;5034610;28;20048;-74
2021/10/22 09:30:42;;;;;;;2.70;1.17;;;16.20;53.80;;;;;;5034427;28;20023;-74
2021/10/22 09:33:15;;;;;;;2.67;1.42;;;15.80;54.60;;;;;;5034407;28;20036;-75
2021/10/22 09:35:46;;;;;;;5.22;1.77;;;15.50;55.30;;;;;;5034257;28;20017;-74
2021/10/22 09:38:22;;;;;;;4.18;1.80;;;15.30;56.30;;;;;;5034332;28;20028;-74
2021/10/22 09:41:05;;;;;;;4.40;1.40;;;15.70;56.60;;;;;;5034225;28;20021;-74
2021/10/22 09:43:37;;;;;;;4.45;1.77;;;16.70;54.60;;;;;;5032795;28;20024;-74
2021/10/22 09:46:14;;;;;;;7.00;1.75;;;17.20;52.10;;;;;;5032880;28;20049;-73
2021/10/22 09:48:43;;;;;;;7.13;1.65;;;18.00;51.00;;;;;;5034346;28;20030;-74
2021/10/22 09:51:24;;;;;;;4.80;2.08;;;18.50;48.90;;;;;;5034694;28;20024;-73
2021/10/22 09:53:50;;;;;;;2.88;1.08;;;18.60;48.30;;;;;;5034364;28;20022;-74
2021/10/22 09:56:22;;;;;;;4.05;1.90;;;18.40;47.50;;;;;;5033163;28;20032;-74
2021/10/22 09:59:00;;;;;;;4.38;1.67;;;17.80;48.40;;;;;;5026342;28;20061;-74
2021/10/22 10:01:33;;;;;;;;;;;17.30;49.40;;;;;;5046549;28;20030;-75
2021/10/22 10:04:00;;;;;;;4.03;1.20;;;16.90;50.70;;;;;;5014510;28;19905;-75
2021/10/22 10:06:31;;;;;;;2.70;1.33;;;16.60;51.20;;;;;;5019821;28;20044;-73
2021/10/22 10:08:56;;;;;;;6.32;1.45;;;16.20;52.10;;;;;;5033581;28;20367;-73
2021/10/22 10:11:27;;;;;;;3.70;1.80;;;15.90;52.70;;;;;;5034044;28;20093;-74
2021/10/22 10:13:54;;;;;;;2.50;1.10;;;15.70;53.30;;;;;;5034328;28;20017;-74
2021/10/22 10:16:21;;;;;;;2.33;1.45;;;15.50;53.60;;;;;;5033939;28;20383;-73
2021/10/22 10:19:07;;;;;;;4.13;1.92;;;15.40;53.90;;;;;;5033848;28;20383;-75
2021/10/22 10:21:39;;;;;;;4.63;1.80;;;15.40;54.20;;;;;;5033921;28;20025;-74
2021/10/22 10:24:06;;;;;;;6.57;1.85;;;15.50;54.40;;;;;;5034329;28;20136;-74
2021/10/22 10:26:34;;;;;;;11.03;4.43;;;15.40;53.70;;;;;;5033806;28;20033;-74
2021/10/22 10:29:01;;;;;;;;;;;15.40;53.50;;;;;;5034228;28;20250;-74
2021/10/22 10:31:32;;;;;;;24.58;10.10;;;15.20;53.80;;;;;;5033792;28;20266;-74
2021/10/22 10:34:30;;;;;;;3.58;1.48;;;15.10;54.20;;;;;;5033689;28;20025;-74
2021/10/22 10:37:07;;;;;;;6.05;1.42;;;15.00;54.00;;;;;;5030838;28;20068;-76
2021/10/22 10:39:42;;;;;;;1.77;1.35;;;14.80;54.30;;;;;;5033202;28;20026;-75
2021/10/22 10:42:33;;;;;;;7.43;1.67;;;14.60;54.80;;;;;;5033437;28;20079;-76
2021/10/22 10:45:03;;;;;;;5.10;1.02;;;14.40;55.20;;;;;;5031650;28;20049;-73
2021/10/22 10:47:30;;;;;;;3.88;2.17;;;13.80;58.20;;;;;;5032924;28;20402;-72
2021/10/22 10:49:56;;;;;;;4.00;0.87;;;12.90;62.10;;;;;;5032564;28;20017;-75
2021/10/22 10:52:37;;;;;;;4.93;1.33;;;11.80;68.20;;;;;;5031957;28;20029;-72
2021/10/22 10:55:31;;;;;;;4.75;1.23;;;10.70;73.60;;;;;;5033206;28;20480;-74
2021/10/22 10:58:11;;;;;;;7.10;0.82;;;10.00;78.40;;;;;;5023937;28;20025;-72
2021/10/22 11:01:18;;;;;;;3.70;0.60;;;9.30;82.30;;;;;;5013720;28;20018;-74
2021/10/22 11:03:45;;;;;;;;;;;8.80;85.00;;;;;;5014385;28;20505;-74
2021/10/22 11:06:13;;;;;;;2.22;1.33;;;8.60;85.90;;;;;;5016505;28;19912;-73
2021/10/22 11:08:41;;;;;;;2.70;0.90;;;8.30;90.00;;;;;;5032899;28;20433;-74
2021/10/22 11:11:16;;;;;;;2.70;0.68;;;8.10;90.90;;;;;;5032776;28;20037;-73
2021/10/22 11:13:52;;;;;;;1.98;0.90;;;7.90;91.60;;;;;;5033159;28;20026;-75
2021/10/22 11:19:03;;;;;;;4.88;1.95;;;7.70;93.30;;;;;;5033258;28;20022;-74
2021/10/22 11:21:31;;;;;;;4.35;1.95;;;7.60;93.50;;;;;;5040878;28;20029;-73
2021/10/22 11:23:59;;;;;;;4.00;1.42;;;7.80;93.80;;;;;;5035497;28;20438;-74
2021/10/22 11:26:25;;;;;;;2.90;1.30;;;7.90;93.90;;;;;;5033243;28;20025;-74
2021/10/22 11:29:14;;;;;;;2.70;1.10;;;8.00;93.90;;;;;;5033042;28;20505;-73
2021/10/22 11:31:45;;;;;;;3.53;1.10;;;8.00;94.00;;;;;;5031494;28;20455;-73
2021/10/22 11:34:28;;;;;;;3.25;1.90;;;8.00;94.30;;;;;;5033112;28;20060;-74
2021/10/22 11:37:09;;;;;;;6.07;1.80;;;8.00;94.70;;;;;;5032821;28;20018;-73
2021/10/22 11:39:47;;;;;;;1.88;0.95;;;8.20;94.60;;;;;;5032907;28;20033;-74
2021/10/22 11:42:29;;;;;;;7.30;1.67;;;8.20;94.50;;;;;;5032947;28;20101;-74
2021/10/22 11:45:04;;;;;;;4.15;2.75;;;8.20;94.00;;;;;;5032915;28;20049;-74
2021/10/22 11:47:36;;;;;;;2.35;1.40;;;8.30;94.30;;;;;;5037209;28;20045;-73
2021/10/22 11:50:23;;;;;;;3.15;1.67;;;8.60;93.90;;;;;;5033191;28;20017;-75
2021/10/22 11:52:58;;;;;;;5.55;1.55;;;8.80;93.10;;;;;;5032422;28;20447;-74
2021/10/22 11:55:26;;;;;;;5.15;1.20;;;8.80;92.60;;;;;;5032602;28;20047;-73
2021/10/22 11:57:54;;;;;;;1.38;1.10;;;8.80;92.20;;;;;;5016728;28;20036;-74
2021/10/22 12:00:21;;;;;;;1.63;1.10;;;8.70;91.80;;;;;;5013202;28;20092;-74
2021/10/22 12:02:48;;;;;;;1.80;1.05;;;8.60;91.80;;;;;;5044768;28;20026;-73
2021/10/22 12:05:14;;;;;;;2.08;1.33;;;8.60;91.80;;;;;;5013290;28;20102;-76
2021/10/22 12:07:44;;;;;;;4.57;2.38;;;8.60;91.40;;;;;;5028504;28;20044;-74
2021/10/22 12:10:15;;;;;;;5.78;2.22;;;8.70;91.50;;;;;;5032567;28;20483;-75
2021/10/22 12:12:48;;;;;;;4.47;1.70;;;8.80;91.50;;;;;;5033051;28;20383;-74
2021/10/22 12:15:28;;;;;;;7.50;2.58;;;8.90;91.40;;;;;;5032093;28;20478;-76
2021/10/22 12:17:56;;;;;;;5.05;2.03;;;9.00;91.00;;;;;;5032445;28;20036;-74
2021/10/22 12:20:22;;;;;;;1.80;1.30;;;9.10;91.10;;;;;;5034541;28;20018;-74
2021/10/22 12:22:58;;;;;;;2.45;0.90;;;9.20;90.60;;;;;;5035992;28;20037;-73
2021/10/22 12:25:27;;;;;;;2.83;1.80;;;9.30;90.40;;;;;;5036160;28;20450;-73
2021/10/22 12:27:54;;;;;;;4.95;1.60;;;9.40;90.30;;;;;;5035913;28;20036;-75
2021/10/22 12:30:25;;;;;;;3.88;1.05;;;9.50;89.60;;;;;;5034463;28;20021;-75
2021/10/22 12:32:54;;;;;;;2.95;1.50;;;9.50;87.70;;;;;;5035621;28;20025;-74
2021/10/22 12:35:31;;;;;;;6.53;1.60;;;9.50;87.80;;;;;;5034543;28;20021;-73
2021/10/22 12:38:12;;;;;;;1.58;1.00;;;9.50;87.50;;;;;;5035867;28;20032;-75
2021/10/22 12:40:48;;;;;;;2.08;1.10;;;9.60;87.20;;;;;;5035452;28;20095;-73
2021/10/22 12:43:30;;;;;;;4.50;2.88;;;9.60;87.40;;;;;;5035452;28;20018;-74
2021/10/22 12:46:04;;;;;;;6.38;1.50;;;9.50;87.00;;;;;;5035217;28;20115;-73
2021/10/22 12:48:34;;;;;;;2.88;1.00;;;9.50;87.80;;;;;;5035805;28;20371;-74
2021/10/22 12:51:24;;;;;;;1.13;0.77;;;9.50;87.50;;;;;;5035250;28;20029;-75
2021/10/22 12:53:58;;;;;;;2.53;1.35;;;9.50;87.40;;;;;;5032702;28;20533;-74
2021/10/22 12:56:29;;;;;;;4.18;1.52;;;9.40;87.60;;;;;;5019991;28;20562;-75